Time;durP1;ratioP1;P1;durP2;ratioP2;P2;SDS_P1;SDS_P2;PMS_P1;PMS_P2;Temp;Humidity;BMP_temperature;BMP_pressure;BME280_temperature;BME280_humidity;BME280_pressure;Samples;Min_cycle;Max_cycle;Signal;HPM_P1;HPM_P2
2023/05/28 00:00:44;;;;;;;5.10;4.30;;;;;;;22.07;49.97;100491.27;105825;1294;83386;-86
2023/05/28 00:03:10;;;;;;;7.40;4.90;;;;;;;22.06;49.97;100489.88;105965;1291;67927;-86
2023/05/28 00:05:35;;;;;;;6.10;4.40;;;;;;;22.06;50.04;100485.52;105976;1292;69234;-86
2023/05/28 00:08:01;;;;;;;7.10;5.00;;;;;;;22.07;50.10;100484.30;105912;1294;69097;-87
2023/05/28 00:10:27;;;;;;;9.10;5.20;;;;;;;22.06;49.99;100479.88;105915;1293;67818;-87
2023/05/28 00:12:53;;;;;;;6.80;4.70;;;;;;;22.06;49.97;100478.96;105975;1294;68000;-87
2023/05/28 00:15:18;;;;;;;6.00;4.60;;;;;;;22.05;50.09;100474.00;105943;1293;67728;-87
2023/05/28 00:17:44;;;;;;;6.80;4.80;;;;;;;22.06;50.12;100475.22;106011;1293;67900;-87
2023/05/28 00:20:10;;;;;;;7.20;5.00;;;;;;;22.05;50.18;100469.74;105944;1291;67118;-87
2023/05/28 00:22:35;;;;;;;7.10;4.40;;;;;;;22.05;50.12;100465.50;105952;1293;68109;-87
2023/05/28 00:25:11;;;;;;;6.90;4.90;;;;;;;22.05;50.19;100463.39;105885;1291;67865;-92
2023/05/28 00:27:37;;;;;;;7.70;4.80;;;;;;;22.05;50.18;100463.91;105952;1293;67739;-86
2023/05/28 00:30:03;;;;;;;5.80;4.70;;;;;;;22.05;50.20;100461.23;106045;1291;67572;-86
2023/05/28 00:32:28;;;;;;;9.20;4.80;;;;;;;22.05;50.06;100465.59;105971;1293;68061;-86
2023/05/28 00:34:54;;;;;;;7.80;5.10;;;;;;;22.04;50.13;100466.67;105984;1292;67897;-86
2023/05/28 00:37:19;;;;;;;7.40;5.10;;;;;;;22.04;50.15;100462.11;105972;1293;69207;-87
2023/05/28 00:39:45;;;;;;;8.80;4.90;;;;;;;22.04;50.12;100461.96;105983;1294;67175;-86
2023/05/28 00:42:12;;;;;;;5.40;4.70;;;;;;;22.04;50.19;100456.17;106002;1292;67814;-86
2023/05/28 00:44:41;;;;;;;6.80;5.20;;;;;;;22.04;50.24;100459.41;106034;1292;73655;-86
2023/05/28 00:47:06;;;;;;;6.50;5.10;;;;;;;22.04;50.23;100457.30;105861;1293;67808;-86
2023/05/28 00:49:35;;;;;;;6.70;4.70;;;;;;;22.04;50.27;100454.48;105889;1293;68373;-87
2023/05/28 00:52:01;;;;;;;8.70;4.80;;;;;;;22.03;50.27;100461.20;105978;1294;74538;-88
2023/05/28 00:54:27;;;;;;;7.60;5.00;;;;;;;22.03;50.26;100460.90;105710;1293;68263;-86
2023/05/28 00:56:57;;;;;;;7.70;5.10;;;;;;;22.03;50.27;100458.89;105761;1294;67146;-86
2023/05/28 00:59:25;;;;;;;6.10;5.20;;;;;;;22.02;50.35;100457.92;105955;1294;67266;-86
2023/05/28 01:01:50;;;;;;;6.80;4.90;;;;;;;22.02;50.29;100457.62;105954;1293;67864;-87
2023/05/28 01:04:16;;;;;;;6.90;5.10;;;;;;;22.01;50.35;100450.97;105789;1297;68127;-86
2023/05/28 01:06:43;;;;;;;7.10;5.10;;;;;;;22.01;50.37;100455.58;105859;1294;67942;-86
2023/05/28 01:09:26;;;;;;;8.40;5.60;;;;;;;22.01;50.26;100452.50;105800;1293;73038;-86
2023/05/28 01:11:52;;;;;;;7.00;5.40;;;;;;;22.01;50.45;100448.77;106064;1291;67869;-86
2023/05/28 01:14:19;;;;;;;8.30;5.00;;;;;;;22.01;50.37;100449.48;105920;1293;68651;-86
2023/05/28 01:16:46;;;;;;;9.00;5.30;;;;;;;22.00;50.37;100451.99;105951;1291;67944;-86
2023/05/28 01:19:12;;;;;;;7.00;5.00;;;;;;;22.00;50.40;100452.81;106071;1292;67833;-87
2023/05/28 01:24:21;;;;;;;7.90;4.60;;;;;;;21.99;50.56;100449.45;105817;1293;67153;-87
2023/05/28 01:26:47;;;;;;;6.60;5.40;;;;;;;22.00;50.54;100449.90;105860;1294;67804;-87
2023/05/28 01:29:14;;;;;;;6.60;4.50;;;;;;;21.99;50.56;100449.59;105902;1293;68465;-87
2023/05/28 01:31:40;;;;;;;7.00;5.20;;;;;;;21.99;50.59;100446.46;105772;1294;68174;-86
2023/05/28 01:34:05;;;;;;;6.30;4.70;;;;;;;21.99;50.49;100444.06;105882;1293;67679;-87
2023/05/28 01:36:32;;;;;;;8.00;5.20;;;;;;;21.99;50.63;100444.05;105765;1294;67793;-86
2023/05/28 01:38:59;;;;;;;7.70;4.70;;;;;;;21.99;50.61;100445.08;105841;1294;75483;-86
2023/05/28 01:41:25;;;;;;;9.00;5.00;;;;;;;21.99;50.58;100439.50;105770;1294;68067;-86
2023/05/28 01:43:52;;;;;;;9.80;5.10;;;;;;;21.99;50.63;100438.37;105723;1296;67130;-86
2023/05/28 01:46:18;;;;;;;7.80;5.40;;;;;;;21.98;50.73;100439.04;105683;1294;67022;-87
2023/05/28 01:48:52;;;;;;;8.20;5.10;;;;;;;21.98;50.72;100437.04;105767;1294;67841;-92
2023/05/28 01:51:24;;;;;;;7.20;5.50;;;;;;;21.98;50.77;100440.27;105955;1294;74617;-87
2023/05/28 01:53:51;;;;;;;6.30;5.40;;;;;;;21.98;50.67;100442.06;106078;1294;83135;-87
2023/05/28 01:56:16;;;;;;;6.60;5.00;;;;;;;21.98;50.72;100445.19;106095;1294;72200;-87
2023/05/28 01:58:42;;;;;;;6.00;4.70;;;;;;;21.97;50.63;100446.27;105918;1294;68584;-87
2023/05/28 02:01:30;;;;;;;9.10;5.20;;;;;;;21.98;50.76;100445.70;105746;1294;67914;-87
2023/05/28 02:03:56;;;;;;;7.60;5.30;;;;;;;21.97;50.83;100444.36;105779;1294;74777;-87
2023/05/28 02:06:22;;;;;;;6.80;5.50;;;;;;;21.97;50.77;100442.68;105876;1294;67815;-86
2023/05/28 02:08:52;;;;;;;7.30;5.20;;;;;;;21.97;50.85;100437.72;105893;1294;67682;-87
2023/05/28 02:11:18;;;;;;;6.30;5.10;;;;;;;21.97;50.94;100439.40;105726;1294;68356;-86
2023/05/28 02:13:43;;;;;;;6.00;5.10;;;;;;;21.97;50.93;100435.11;105914;1294;67906;-87
2023/05/28 02:16:17;;;;;;;7.80;5.30;;;;;;;21.97;50.92;100437.41;106037;1295;67833;-87
2023/05/28 02:18:45;;;;;;;10.90;5.40;;;;;;;21.97;50.97;100434.90;106101;1294;82897;-86
2023/05/28 02:21:14;;;;;;;8.20;5.40;;;;;;;21.96;51.06;100439.05;106085;1293;72724;-86
2023/05/28 02:23:44;;;;;;;6.70;5.30;;;;;;;21.96;51.05;100434.80;105852;1294;67146;-87
2023/05/28 02:26:10;;;;;;;6.10;5.00;;;;;;;21.96;50.91;100435.36;105930;1294;67783;-86
2023/05/28 02:28:36;;;;;;;6.80;5.20;;;;;;;21.95;50.95;100436.43;106022;1293;68044;-86
2023/05/28 02:31:01;;;;;;;16.00;5.60;;;;;;;21.96;51.05;100432.70;106007;1294;67780;-86
2023/05/28 02:33:33;;;;;;;6.10;4.90;;;;;;;21.95;50.98;100434.74;106164;1294;67867;-86
2023/05/28 02:35:58;;;;;;;6.10;5.30;;;;;;;21.95;51.10;100433.05;106303;1294;67150;-87
2023/05/28 02:38:24;;;;;;;7.30;5.30;;;;;;;21.95;50.98;100431.92;106130;1294;67688;-87
2023/05/28 02:40:50;;;;;;;7.90;5.30;;;;;;;21.95;51.05;100429.73;106236;1296;68291;-87
2023/05/28 02:43:15;;;;;;;8.30;5.40;;;;;;;21.95;51.10;100431.58;106104;1294;67356;-86
2023/05/28 02:45:41;;;;;;;6.70;5.40;;;;;;;21.95;51.19;100427.64;106146;1294;67154;-87
2023/05/28 02:48:09;;;;;;;7.80;5.10;;;;;;;21.95;51.13;100433.67;105887;1293;67092;-86
2023/05/28 02:50:35;;;;;;;8.90;5.80;;;;;;;21.95;51.21;100435.36;105954;1294;75434;-86
2023/05/28 02:53:01;;;;;;;7.00;5.00;;;;;;;21.95;51.06;100438.18;105916;1294;67149;-87
2023/05/28 02:55:27;;;;;;;6.20;5.10;;;;;;;21.94;51.18;100437.00;105770;1295;67146;-87
2023/05/28 02:57:52;;;;;;;9.00;5.40;;;;;;;21.95;51.29;100435.47;105841;1294;67090;-87
2023/05/28 03:03:00;;;;;;;6.40;5.40;;;;;;;21.94;51.19;100441.38;105818;1295;75599;-87
2023/05/28 03:05:27;;;;;;;8.00;5.80;;;;;;;21.94;51.27;100441.88;105782;1296;67945;-87
2023/05/28 03:07:52;;;;;;;6.90;5.30;;;;;;;21.94;51.17;100445.67;105703;1296;68610;-87
2023/05/28 03:10:18;;;;;;;7.00;5.00;;;;;;;21.93;51.23;100444.38;105966;1295;67406;-87
2023/05/28 03:12:43;;;;;;;5.60;5.00;;;;;;;21.94;51.14;100448.12;106059;1295;67128;-87
2023/05/28 03:15:09;;;;;;;7.70;5.60;;;;;;;21.94;51.14;100451.45;106206;1296;68102;-87
2023/05/28 03:17:35;;;;;;;6.90;5.60;;;;;;;21.94;51.20;100453.96;106169;1297;67114;-87
2023/05/28 03:20:00;;;;;;;9.50;5.60;;;;;;;21.94;51.27;100453.14;106135;1296;67959;-87
2023/05/28 03:22:26;;;;;;;9.60;5.80;;;;;;;21.94;51.30;100454.98;106172;1298;67137;-87
2023/05/28 03:24:51;;;;;;;10.30;5.40;;;;;;;21.94;51.36;100454.69;106012;1296;67131;-87
2023/05/28 03:27:34;;;;;;;5.50;5.00;;;;;;;21.94;51.27;100451.86;106026;1296;67286;-91
2023/05/28 03:29:59;;;;;;;6.40;5.70;;;;;;;21.93;51.33;100450.86;105763;1296;67647;-86
2023/05/28 03:32:25;;;;;;;7.30;5.50;;;;;;;21.93;51.29;100455.81;105814;1296;67150;-86
2023/05/28 03:34:51;;;;;;;7.80;5.30;;;;;;;21.93;51.32;100456.58;105739;1296;67767;-87
2023/05/28 03:37:16;;;;;;;6.80;5.90;;;;;;;21.93;51.41;100458.73;105659;1296;67988;-87
2023/05/28 03:39:43;;;;;;;7.60;5.60;;;;;;;21.93;51.37;100450.23;105819;1296;67860;-86
2023/05/28 03:42:08;;;;;;;7.50;5.40;;;;;;;21.93;51.48;100451.92;105836;1296;68382;-86
2023/05/28 03:44:34;;;;;;;8.20;5.70;;;;;;;21.92;51.34;100444.29;106122;1296;67120;-87
2023/05/28 03:47:00;;;;;;;6.60;5.20;;;;;;;21.93;51.43;100445.73;105920;1296;68394;-87
2023/05/28 03:49:26;;;;;;;5.70;5.10;;;;;;;21.92;51.50;100445.26;105857;1295;67802;-86
2023/05/28 03:51:51;;;;;;;7.20;6.00;;;;;;;21.93;51.47;100449.66;105747;1297;68430;-87
2023/05/28 03:54:26;;;;;;;10.30;5.60;;;;;;;21.92;51.35;100450.73;105669;1295;67794;-92
2023/05/28 03:56:51;;;;;;;10.70;5.60;;;;;;;21.93;51.42;100451.20;105725;1296;83276;-87
2023/05/28 03:59:17;;;;;;;7.70;5.70;;;;;;;21.92;51.37;100455.10;105731;1296;67961;-87
2023/05/28 04:01:42;;;;;;;7.00;5.60;;;;;;;21.92;51.40;100456.79;105679;1294;68000;-86
2023/05/28 04:04:08;;;;;;;7.60;5.70;;;;;;;21.93;51.43;100457.09;105696;1297;67100;-87
2023/05/28 04:06:33;;;;;;;8.00;5.70;;;;;;;21.93;51.39;100460.48;105903;1294;67793;-87
2023/05/28 04:08:59;;;;;;;7.10;6.00;;;;;;;21.93;51.39;100466.31;105745;1294;67967;-86
2023/05/28 04:11:28;;;;;;;9.50;6.00;;;;;;;21.92;51.37;100465.38;105806;1294;67967;-87
2023/05/28 04:13:54;;;;;;;8.10;5.70;;;;;;;21.92;51.42;100469.34;105817;1295;68018;-87
2023/05/28 04:16:22;;;;;;;9.00;5.60;;;;;;;21.92;51.42;100471.02;105901;1294;67954;-87
2023/05/28 04:18:48;;;;;;;8.10;5.80;;;;;;;21.92;51.52;100472.41;105857;1294;82962;-87
2023/05/28 04:21:17;;;;;;;7.20;6.00;;;;;;;21.92;51.38;100474.36;105857;1294;67972;-92
2023/05/28 04:23:42;;;;;;;9.60;6.00;;;;;;;21.92;51.38;100474.41;105804;1294;67889;-87
2023/05/28 04:26:09;;;;;;;7.10;5.70;;;;;;;21.92;51.48;100479.44;105814;1295;68579;-87
2023/05/28 04:28:36;;;;;;;9.90;6.00;;;;;;;21.92;51.45;100482.86;105715;1294;69053;-87
2023/05/28 04:31:02;;;;;;;7.20;5.90;;;;;;;21.92;51.54;100485.05;105848;1295;67965;-87
2023/05/28 04:33:31;;;;;;;8.70;6.80;;;;;;;21.93;51.47;100488.70;105726;1294;67771;-87
2023/05/28 04:35:57;;;;;;;8.30;5.70;;;;;;;21.92;51.51;100489.87;105697;1295;67851;-86
2023/05/28 04:38:37;;;;;;;8.60;6.10;;;;;;;21.92;51.40;100493.56;105857;1291;68395;-87
2023/05/28 04:41:04;;;;;;;10.10;6.40;;;;;;;21.93;51.60;100496.39;106096;1291;67886;-86
2023/05/28 04:43:30;;;;;;;9.40;5.90;;;;;;;21.92;51.43;100494.08;105911;1292;67873;-87
2023/05/28 04:45:58;;;;;;;7.60;6.00;;;;;;;21.92;51.51;100490.60;105892;1291;67840;-87
2023/05/28 04:48:23;;;;;;;7.60;6.00;;;;;;;21.92;51.42;100489.05;106037;1291;67789;-87
2023/05/28 04:50:50;;;;;;;6.60;5.80;;;;;;;21.92;51.43;100493.26;106018;1291;67157;-87
2023/05/28 04:53:15;;;;;;;9.80;5.70;;;;;;;21.92;51.37;100488.85;106239;1292;67058;-87
2023/05/28 04:55:41;;;;;;;10.30;6.50;;;;;;;21.92;51.30;100488.03;106392;1291;67643;-87
2023/05/28 04:58:07;;;;;;;6.10;5.30;;;;;;;21.92;51.28;100489.00;106209;1291;67921;-87
2023/05/28 05:00:34;;;;;;;7.90;5.60;;;;;;;21.92;51.08;100489.68;106113;1292;67848;-86
2023/05/28 05:03:08;;;;;;;7.00;5.70;;;;;;;21.92;51.16;100486.91;106071;1292;75211;-91
2023/05/28 05:05:34;;;;;;;7.40;5.60;;;;;;;21.91;51.01;100489.52;106070;1291;83044;-87
2023/05/28 05:08:01;;;;;;;7.80;5.50;;;;;;;21.90;51.01;100486.71;106094;1292;67723;-87
2023/05/28 05:10:27;;;;;;;8.00;5.80;;;;;;;21.91;50.89;100492.91;106055;1292;68054;-86
2023/05/28 05:12:52;;;;;;;7.30;5.60;;;;;;;21.92;50.98;100491.11;106009;1292;67265;-87
2023/05/28 05:15:18;;;;;;;8.40;5.30;;;;;;;21.92;50.83;100492.23;106119;1291;67820;-87
2023/05/28 05:17:44;;;;;;;9.20;5.80;;;;;;;21.92;50.75;100494.39;105917;1291;68458;-86
2023/05/28 05:20:10;;;;;;;7.70;5.40;;;;;;;21.92;50.78;100490.80;105991;1291;68163;-87
2023/05/28 05:22:35;;;;;;;8.20;5.60;;;;;;;21.91;50.66;100493.01;106121;1292;67103;-87
2023/05/28 05:25:01;;;;;;;9.20;5.50;;;;;;;21.92;50.61;100493.52;106002;1292;67897;-87
2023/05/28 05:27:28;;;;;;;6.60;5.20;;;;;;;21.92;50.59;100497.31;105981;1292;67694;-87
2023/05/28 05:30:03;;;;;;;8.50;6.00;;;;;;;21.92;50.64;100499.77;106296;1292;67095;-92
2023/05/28 05:32:28;;;;;;;9.10;5.40;;;;;;;21.92;50.52;100496.64;105922;1292;68092;-87
2023/05/28 05:34:54;;;;;;;9.60;5.70;;;;;;;21.92;50.47;100497.31;106075;1292;67881;-87
2023/05/28 05:37:20;;;;;;;9.40;5.40;;;;;;;21.92;50.43;100493.66;106310;1292;67023;-87
2023/05/28 05:39:46;;;;;;;10.70;5.30;;;;;;;21.92;50.35;100496.48;106094;1291;67793;-87
2023/05/28 05:42:11;;;;;;;9.80;5.90;;;;;;;21.92;50.28;100494.95;106025;1294;68417;-87
2023/05/28 05:44:37;;;;;;;9.40;5.40;;;;;;;21.92;50.22;100497.29;106100;1291;68637;-87
2023/05/28 05:47:02;;;;;;;9.90;5.70;;;;;;;21.92;50.23;100499.61;106120;1292;68102;-87
2023/05/28 05:49:28;;;;;;;7.10;5.40;;;;;;;21.92;50.21;100502.13;106180;1292;67703;-87
2023/05/28 05:51:53;;;;;;;9.60;5.70;;;;;;;21.92;50.11;100506.07;106036;1292;67141;-87
2023/05/28 05:54:19;;;;;;;8.00;5.50;;;;;;;21.92;50.08;100506.17;105994;1292;67728;-87
2023/05/28 05:57:02;;;;;;;9.40;5.70;;;;;;;21.93;50.08;100507.65;106099;1293;67950;-92
2023/05/28 05:59:28;;;;;;;6.90;5.00;;;;;;;21.92;50.00;100505.76;106071;1292;83844;-87
2023/05/28 06:01:54;;;;;;;8.40;5.50;;;;;;;21.92;50.05;100510.52;106090;1292;67725;-87
2023/05/28 06:04:20;;;;;;;8.80;5.60;;;;;;;21.92;49.99;100510.11;105952;1292;69056;-87
2023/05/28 06:06:46;;;;;;;6.80;5.90;;;;;;;21.91;49.86;100511.35;106109;1291;68475;-87
2023/05/28 06:09:11;;;;;;;10.20;5.40;;;;;;;21.92;49.84;100509.14;106118;1291;67820;-87
2023/05/28 06:14:23;;;;;;;7.90;5.60;;;;;;;21.92;49.73;100510.27;105854;1296;67873;-87
2023/05/28 06:16:50;;;;;;;7.20;5.30;;;;;;;21.92;49.74;100511.39;105886;1296;67901;-87
2023/05/28 06:19:15;;;;;;;8.60;5.20;;;;;;;21.92;49.65;100509.14;105712;1294;67854;-87
2023/05/28 06:21:41;;;;;;;8.30;5.80;;;;;;;21.92;49.49;100509.35;105802;1296;68020;-87
2023/05/28 06:24:06;;;;;;;7.60;5.00;;;;;;;21.92;49.51;100512.31;105695;1294;67756;-87
2023/05/28 06:26:32;;;;;;;8.00;5.30;;;;;;;21.93;49.46;100514.16;105832;1294;67737;-87
2023/05/28 06:28:57;;;;;;;7.90;5.10;;;;;;;21.93;49.45;100514.02;105760;1297;67979;-86
2023/05/28 06:31:23;;;;;;;7.60;5.30;;;;;;;21.92;49.28;100514.41;105780;1296;68252;-87
2023/05/28 06:33:49;;;;;;;8.20;5.30;;;;;;;21.93;49.33;100515.59;105832;1297;67759;-87
2023/05/28 06:36:15;;;;;;;9.90;5.20;;;;;;;21.93;49.23;100518.72;105850;1296;67768;-87
2023/05/28 06:38:50;;;;;;;7.00;5.30;;;;;;;21.93;49.10;100515.34;105729;1296;67699;-92
2023/05/28 06:41:15;;;;;;;6.90;4.60;;;;;;;21.93;49.05;100519.59;105861;1294;75470;-86
2023/05/28 06:43:41;;;;;;;7.80;5.20;;;;;;;21.93;49.04;100521.12;105854;1294;67915;-87
2023/05/28 06:46:07;;;;;;;7.50;5.40;;;;;;;21.94;49.12;100517.95;105723;1296;67137;-86
2023/05/28 06:48:32;;;;;;;7.60;5.30;;;;;;;21.94;48.95;100518.66;105730;1297;67118;-87
2023/05/28 06:50:59;;;;;;;9.40;5.40;;;;;;;21.94;48.93;100514.61;105906;1296;67198;-87
2023/05/28 06:53:24;;;;;;;9.30;5.40;;;;;;;21.95;49.00;100513.39;105692;1296;83195;-87
2023/05/28 06:55:50;;;;;;;8.70;5.50;;;;;;;21.95;48.86;100517.34;105864;1294;67802;-87
2023/05/28 06:58:15;;;;;;;6.50;4.90;;;;;;;21.95;48.76;100519.45;105916;1294;67637;-86
2023/05/28 07:00:41;;;;;;;6.80;5.50;;;;;;;21.95;48.83;100518.56;105904;1294;67384;-86
2023/05/28 07:03:08;;;;;;;5.80;4.70;;;;;;;21.96;48.81;100519.99;105953;1294;67994;-86
2023/05/28 07:05:42;;;;;;;6.50;5.10;;;;;;;21.96;48.66;100520.91;105872;1294;72366;-90
2023/05/28 07:08:08;;;;;;;9.50;5.50;;;;;;;21.97;48.71;100527.58;105698;1294;286762;-86
2023/05/28 07:10:33;;;;;;;11.50;5.50;;;;;;;21.96;48.68;100532.19;105984;1294;67821;-86
2023/05/28 07:12:59;;;;;;;7.50;5.40;;;;;;;21.97;48.73;100530.69;105910;1294;67795;-87
2023/05/28 07:15:25;;;;;;;5.70;4.90;;;;;;;21.96;48.70;100528.40;105874;1294;67874;-86
2023/05/28 07:17:53;;;;;;;8.10;5.20;;;;;;;21.97;48.63;100530.60;105935;1294;67911;-86
2023/05/28 07:20:20;;;;;;;6.30;5.10;;;;;;;21.97;48.48;100528.23;105901;1297;67051;-86
2023/05/28 07:22:45;;;;;;;8.20;5.20;;;;;;;21.97;48.50;100528.70;105979;1294;67616;-86
2023/05/28 07:25:11;;;;;;;10.60;5.00;;;;;;;21.98;48.55;100533.52;106087;1294;67248;-86
2023/05/28 07:27:36;;;;;;;6.80;5.00;;;;;;;21.98;48.44;100534.54;106223;1294;67674;-86
2023/05/28 07:30:02;;;;;;;7.30;5.30;;;;;;;21.98;48.53;100534.59;105897;1294;67688;-87
2023/05/28 07:34:56;;;;;;;8.30;5.20;;;;;;;21.99;48.31;100533.55;106069;1293;81937;-87
2023/05/28 07:37:22;;;;;;;6.50;5.10;;;;;;;21.99;48.41;100530.19;106179;1293;67756;-87
2023/05/28 07:39:47;;;;;;;8.30;4.90;;;;;;;22.00;48.41;100529.52;106181;1294;67638;-86
2023/05/28 07:42:16;;;;;;;7.00;5.30;;;;;;;22.00;48.39;100529.52;106001;1294;67098;-87
2023/05/28 07:44:41;;;;;;;7.20;5.00;;;;;;;22.00;48.41;100535.35;105875;1293;68256;-87
2023/05/28 07:47:07;;;;;;;8.60;5.50;;;;;;;22.00;48.43;100527.73;106089;1293;68385;-86
2023/05/28 07:49:32;;;;;;;8.10;5.30;;;;;;;22.00;48.31;100532.13;106016;1294;67179;-87
2023/05/28 07:51:58;;;;;;;7.50;5.00;;;;;;;22.00;48.26;100529.41;106022;1293;68350;-86
2023/05/28 07:54:23;;;;;;;6.60;4.90;;;;;;;22.00;48.18;100528.48;105751;1291;67867;-87
2023/05/28 07:56:49;;;;;;;6.50;4.90;;;;;;;22.01;48.34;100537.25;105967;1294;67784;-87
2023/05/28 08:01:57;;;;;;;6.30;4.60;;;;;;;22.01;48.14;100526.85;105848;1293;68351;-87
2023/05/28 08:04:23;;;;;;;6.80;5.10;;;;;;;22.01;48.14;100531.71;105943;1293;68043;-87
2023/05/28 08:06:49;;;;;;;8.90;5.10;;;;;;;22.02;48.18;100526.69;105962;1294;68175;-87
2023/05/28 08:09:17;;;;;;;9.00;4.70;;;;;;;22.02;48.12;100523.05;106000;1293;67711;-87
2023/05/28 08:11:43;;;;;;;5.50;4.70;;;;;;;22.03;48.13;100521.15;105808;1293;67883;-88
2023/05/28 08:14:09;;;;;;;10.00;5.00;;;;;;;22.03;48.18;100521.20;105875;1294;67682;-87
2023/05/28 08:16:35;;;;;;;5.70;4.90;;;;;;;22.03;48.13;100517.10;105965;1294;67739;-88
2023/05/28 08:19:01;;;;;;;5.30;4.70;;;;;;;22.03;48.03;100514.17;105990;1293;67731;-88
2023/05/28 08:21:26;;;;;;;6.80;4.40;;;;;;;22.04;47.94;100509.46;105961;1293;67798;-87
2023/05/28 08:23:56;;;;;;;7.40;4.90;;;;;;;22.04;48.06;100508.33;106179;1293;67735;-88
2023/05/28 08:26:22;;;;;;;11.30;4.90;;;;;;;22.04;47.95;100515.77;106112;1294;67957;-92
2023/05/28 08:28:47;;;;;;;8.10;5.20;;;;;;;22.04;47.99;100515.86;106132;1294;68059;-87
2023/05/28 08:31:13;;;;;;;7.60;5.20;;;;;;;22.04;47.92;100520.67;106058;1297;68118;-87
2023/05/28 08:33:38;;;;;;;9.70;5.00;;;;;;;22.04;47.95;100521.80;105934;1293;68252;-87
2023/05/28 08:36:04;;;;;;;7.10;5.00;;;;;;;22.04;47.90;100517.86;105986;1293;67853;-87
2023/05/28 08:38:30;;;;;;;7.40;5.10;;;;;;;22.04;47.77;100518.52;105912;1294;74353;-88
2023/05/28 08:40:55;;;;;;;6.30;4.60;;;;;;;22.05;47.87;100520.88;105897;1293;67797;-87
2023/05/28 08:43:22;;;;;;;7.60;5.00;;;;;;;22.05;47.87;100515.23;105803;1294;67830;-87
2023/05/28 08:45:50;;;;;;;6.40;4.80;;;;;;;22.05;47.83;100516.63;105932;1293;68363;-88
2023/05/28 08:48:16;;;;;;;6.20;4.70;;;;;;;22.05;47.85;100515.96;105881;1294;67841;-88
2023/05/28 08:50:42;;;;;;;9.60;5.10;;;;;;;22.05;47.88;100522.00;105869;1293;67212;-88
2023/05/28 08:55:41;;;;;;;6.60;5.00;;;;;;;22.06;47.83;100518.48;106019;1291;72184;-87
2023/05/28 08:58:06;;;;;;;6.90;4.80;;;;;;;22.05;47.74;100520.06;105805;1292;68097;-87
2023/05/28 09:00:32;;;;;;;6.80;5.20;;;;;;;22.05;47.77;100515.39;105979;1292;67730;-88
2023/05/28 09:02:57;;;;;;;6.20;4.90;;;;;;;22.05;47.71;100511.45;106060;1292;67777;-87
2023/05/28 09:05:23;;;;;;;6.00;5.00;;;;;;;22.05;47.69;100511.00;106091;1293;67851;-88
2023/05/28 09:07:48;;;;;;;5.30;4.50;;;;;;;22.05;47.63;100511.77;106079;1291;67796;-87
2023/05/28 09:10:14;;;;;;;5.90;4.90;;;;;;;22.05;47.70;100514.01;105990;1291;67677;-87
2023/05/28 09:12:41;;;;;;;6.30;5.00;;;;;;;22.06;47.63;100510.52;106020;1291;67817;-87
2023/05/28 09:15:07;;;;;;;6.20;4.80;;;;;;;22.06;47.55;100514.11;105902;1291;69012;-87
2023/05/28 09:17:36;;;;;;;5.50;4.80;;;;;;;22.06;47.54;100516.06;105970;1292;67848;-87
2023/05/28 09:20:12;;;;;;;5.80;4.90;;;;;;;22.06;47.56;100514.73;106025;1291;67068;-92
2023/05/28 09:22:38;;;;;;;7.60;5.20;;;;;;;22.07;47.53;100514.78;105922;1292;67684;-87
2023/05/28 09:25:06;;;;;;;7.40;5.10;;;;;;;22.07;47.43;100513.09;106277;1291;67789;-87
2023/05/28 09:27:32;;;;;;;5.70;5.10;;;;;;;22.08;47.47;100510.06;106020;1292;82975;-87
2023/05/28 09:30:06;;;;;;;6.40;5.00;;;;;;;22.08;47.44;100507.66;105991;1291;67727;-87
2023/05/28 09:32:33;;;;;;;5.80;5.10;;;;;;;22.07;47.39;100504.94;106045;1294;67653;-87
2023/05/28 09:35:07;;;;;;;7.00;5.10;;;;;;;22.07;47.30;100508.32;106077;1291;67692;-93
2023/05/28 09:37:35;;;;;;;7.90;5.50;;;;;;;22.08;47.37;100505.55;106081;1291;74264;-87
2023/05/28 09:40:02;;;;;;;7.30;5.40;;;;;;;22.08;47.33;100507.65;105994;1292;83037;-88
2023/05/28 09:42:33;;;;;;;6.80;5.10;;;;;;;22.07;47.26;100512.02;106082;1291;72988;-87
2023/05/28 09:45:00;;;;;;;8.80;5.50;;;;;;;22.08;47.26;100513.44;105990;1294;67836;-86
2023/05/28 09:47:25;;;;;;;6.70;5.70;;;;;;;22.08;47.23;100514.67;105987;1291;67013;-87
2023/05/28 09:52:33;;;;;;;8.60;5.30;;;;;;;22.09;47.12;100508.38;105767;1295;83586;-87
2023/05/28 09:54:59;;;;;;;8.30;5.10;;;;;;;22.09;47.03;100510.06;105696;1296;67856;-86
2023/05/28 09:57:34;;;;;;;6.00;5.20;;;;;;;22.09;47.04;100507.76;105762;1295;67906;-87
2023/05/28 10:00:14;;;;;;;6.30;4.90;;;;;;;22.09;46.95;100509.95;105812;1293;67836;-86
2023/05/28 10:03:01;;;;;;;7.40;5.50;;;;;;;22.09;47.02;100508.63;105712;1295;75371;-86
2023/05/28 10:05:28;;;;;;;6.60;5.30;;;;;;;22.09;46.96;100504.78;105791;1296;83012;-87
2023/05/28 10:08:03;;;;;;;6.90;5.50;;;;;;;22.09;46.98;100502.69;105678;1296;72765;-91
2023/05/28 10:10:28;;;;;;;5.70;5.10;;;;;;;22.09;46.97;100500.33;105734;1295;68326;-86
2023/05/28 10:12:54;;;;;;;7.30;5.30;;;;;;;22.10;46.89;100500.42;105646;1295;67891;-86
2023/05/28 10:15:20;;;;;;;6.90;5.40;;;;;;;22.10;46.90;100497.20;105771;1295;68355;-86
2023/05/28 10:17:48;;;;;;;8.40;5.40;;;;;;;22.10;46.89;100490.33;105699;1295;68325;-87
2023/05/28 10:20:14;;;;;;;6.60;5.30;;;;;;;22.11;46.86;100496.95;105704;1295;67893;-87
2023/05/28 10:22:40;;;;;;;8.30;5.30;;;;;;;22.12;46.89;100491.35;105732;1295;67926;-87
2023/05/28 10:25:07;;;;;;;9.10;5.40;;;;;;;22.12;46.84;100489.40;105625;1296;67906;-87
2023/05/28 10:27:34;;;;;;;7.80;5.80;;;;;;;22.12;46.78;100487.20;105695;1295;67726;-86
2023/05/28 10:30:03;;;;;;;6.30;5.50;;;;;;;22.13;46.83;100485.04;105818;1296;69207;-86
2023/05/28 10:32:29;;;;;;;6.30;5.00;;;;;;;22.14;46.73;100486.27;105791;1296;72653;-87
2023/05/28 10:35:02;;;;;;;6.50;5.50;;;;;;;22.15;46.83;100481.30;105768;1296;67829;-90
2023/05/28 10:37:27;;;;;;;6.50;5.70;;;;;;;22.15;46.72;100478.41;105684;1296;68571;-86
2023/05/28 10:39:53;;;;;;;6.20;5.30;;;;;;;22.16;46.79;100473.84;105867;1296;67116;-87
2023/05/28 10:42:20;;;;;;;6.50;5.80;;;;;;;22.17;46.65;100468.41;105797;1296;67761;-87
2023/05/28 10:44:51;;;;;;;9.30;6.20;;;;;;;22.18;46.74;100470.81;105774;1295;67091;-86
2023/05/28 10:47:18;;;;;;;;;;;;;;;22.17;46.69;100468.77;105724;1296;67672;-87
2023/05/28 10:50:11;;;;;;;6.90;5.30;;;;;;;22.14;46.80;100468.85;105642;1296;67716;-90
2023/05/28 10:52:54;;;;;;;8.20;5.80;;;;;;;22.16;46.69;100467.04;105771;1296;73322;-87
2023/05/28 10:55:20;;;;;;;8.70;5.70;;;;;;;22.16;46.72;100459.80;105711;1296;83811;-87
2023/05/28 10:57:47;;;;;;;6.80;5.50;;;;;;;22.17;46.70;100459.48;105732;1295;67522;-87
2023/05/28 11:00:13;;;;;;;7.60;5.30;;;;;;;22.18;46.72;100450.83;105611;1297;67936;-87
2023/05/28 11:02:43;;;;;;;7.20;5.50;;;;;;;22.18;46.75;100451.14;105752;1296;67828;-86
2023/05/28 11:05:11;;;;;;;8.00;6.00;;;;;;;22.19;46.75;100453.23;105681;1296;75211;-87
2023/05/28 11:07:40;;;;;;;7.90;5.40;;;;;;;22.19;46.73;100444.30;105764;1295;68301;-88
2023/05/28 11:10:08;;;;;;;6.80;5.70;;;;;;;22.20;46.75;100443.34;105726;1295;72399;-86
2023/05/28 11:12:37;;;;;;;8.20;6.10;;;;;;;22.20;46.79;100442.52;105747;1295;67775;-87
2023/05/28 11:15:09;;;;;;;6.10;5.30;;;;;;;22.22;46.69;100436.46;105684;1296;67766;-87
2023/05/28 11:17:38;;;;;;;8.10;5.50;;;;;;;22.23;46.72;100438.71;105622;1295;74531;-86
2023/05/28 11:20:05;;;;;;;8.20;6.00;;;;;;;22.22;46.65;100439.79;105623;1296;75435;-86
2023/05/28 11:22:37;;;;;;;8.20;5.80;;;;;;;22.24;46.68;100434.60;105737;1295;72488;-91
2023/05/28 11:25:06;;;;;;;6.90;5.80;;;;;;;22.24;46.66;100441.11;105758;1295;67986;-87
2023/05/28 11:27:34;;;;;;;8.60;5.30;;;;;;;22.24;46.71;100445.02;105680;1296;67649;-86
2023/05/28 11:30:06;;;;;;;6.40;5.60;;;;;;;22.23;46.70;100440.75;105781;1296;67427;-86
2023/05/28 11:32:32;;;;;;;8.20;5.80;;;;;;;22.24;46.63;100440.50;105652;1296;84060;-86
2023/05/28 11:34:58;;;;;;;8.30;6.50;;;;;;;22.24;46.62;100438.10;105760;1296;67795;-86